SI-0021 weather

Public forecast

Using degrees Celsius for public forecast. Weather courtesy of forecast.io.

Closest aviation weather report (METAR) to Vzletišče Cerknica - Marof

Closest report is Ljubljana Jože Pučnik Airport, 26.9 nm (49.9 km) N. Retrieved 2020/08/10 08:00 UTC (8 minutes ago):

LJLJ 100800Z 07002KT 9999 FEW066 24/19 Q1017 NOSIG

Closest aviation forecast (TAF) to Vzletišče Cerknica - Marof

Closest forecast is Ljubljana Jože Pučnik Airport, 26.9 nm (49.9 km) N. Retrieved 2020/08/10 06:06 UTC (2 hours ago):

TAF LJLJ 100500Z 1006/1106 VRB02KT CAVOK TEMPO 1012/1018 FEW060CB PROB40 TEMPO 1012/1018 VRB15KT 5000 TSRA SCT050CB